Raisin City, CA (93652)

7:59 PM PST on November 23, 2014 (GMT -0800)
GFWS45 | Change Station
CLOSE
Current Station
Personal Weather Station
Location: Raisin City, CA
Elevation: 223 ft
Nearby Weather Stations

Elev 223 ft 36.63 °N, 119.97 °W | Updated 1 minute ago

Mostly Cloudy
Mostly Cloudy
44.7 °F
Feels Like 45 °F
N
0.0
Wind Variable Wind from NE
Gusts 0.0 mph

Today
High -- | Low -- °F
--% Chance of Precip.
Yesterday
High -- | Low -- °F
Precip. -- in
6:45 AM 4:46 PM
Waxing Crescent, 3% visible
Pressure 30.31 in
Visibility 7.0 miles
Clouds Scattered Clouds 15000 ft
Windchill 45 °F
Dew Point 42 °F
Humidity 91%
Rainfall 0.00 in
Snow Depth Not available.
UV 0 out of 12
Pollen 1.60 out of 12
Air Quality Not available.
Flu Activity Not available.
METAR KFAT 240353Z 29003KT 7SM SCT150 11/08 A3031 RMK AO2 SLP262 T01110083

More Conditions Fewer Conditions

Pressure 30.31 in
Visibility 7.0 miles
Clouds Scattered Clouds 15000 ft
Windchill 45 °F
Dew Point 42 °F
Humidity 91%
Rainfall 0.00 in
Snow Depth Not available.
UV 0 out of 12
Pollen 1.60 out of 12
Air Quality Not available.
Flu Activity Not available.
METAR KFAT 240353Z 29003KT 7SM SCT150 11/08 A3031 RMK AO2 SLP262 T01110083

More Conditions Fewer Conditions

10-Day Weather Forecast

Almanac

Astronomy

Nov. 23, 2014 Rise Set
Actual Time
Civil Twilight
Nautical Twilight
Astronomical Twilight
Moon
Length of Visible Light
Length of Day
Tomorrow will be .
, % of the Moon is Illuminated

Today's Extremes

State Highs State Lows

Community

WunderPhotos

Upload Photos

1,773,262 photos uploaded!

WunderBlogs® & News

Nearby

Air Quality

  Air Quality AQ Index Pollutant
Not available.

Snow Depth

Station Depth Elevation

Earthquake Activity

City Distance Mag. Time & Date
Minimum magnitude displayed is 2.5.

Coastal Water Temperatures

Place Temperature

Nearby Weather Stations